createdAt,value
2018-01-01T00:01:22.742Z,75.87
2018-01-01T00:03:51.490Z,72.20
2018-01-01T00:06:20.412Z,70.30
2018-01-01T00:08:48.684Z,69.30
2018-01-01T00:11:17.355Z,64.07
2018-01-01T00:13:47.859Z,61.90
2018-01-01T00:16:16.553Z,64.10
2018-01-01T00:18:45.457Z,57.37
2018-01-01T00:21:17.835Z,57.00
2018-01-01T00:23:52.203Z,54.83
2018-01-01T00:26:24.770Z,51.63
2018-01-01T00:28:54.145Z,52.67
2018-01-01T00:31:22.777Z,49.33
2018-01-01T00:33:51.048Z,47.43
2018-01-01T00:36:19.287Z,47.47
2018-01-01T00:38:48.218Z,42.97
2018-01-01T00:41:16.454Z,42.30
2018-01-01T00:43:45.087Z,40.60
2018-01-01T00:46:13.355Z,38.30
2018-01-01T00:48:41.630Z,37.97
2018-01-01T00:51:09.876Z,34.00
2018-01-01T00:53:38.152Z,35.20
2018-01-01T00:56:06.408Z,32.30
2018-01-01T00:58:35.067Z,30.23
2018-01-01T01:01:03.335Z,29.87
2018-01-01T01:03:31.576Z,28.57
2018-01-01T01:05:59.837Z,28.83
2018-01-01T01:08:28.491Z,26.53
2018-01-01T01:10:56.972Z,26.37
2018-01-01T01:13:25.235Z,23.67
2018-01-01T01:15:53.555Z,23.23
2018-01-01T01:18:22.196Z,22.63
2018-01-01T01:20:50.459Z,21.60
2018-01-01T01:23:18.750Z,20.67
2018-01-01T01:25:47.006Z,20.17
2018-01-01T01:28:15.288Z,19.53
2018-01-01T01:30:43.567Z,20.30
2018-01-01T01:33:11.802Z,18.83
2018-01-01T01:35:40.059Z,17.80
2018-01-01T01:38:08.711Z,17.57
2018-01-01T01:40:36.960Z,17.00
2018-01-01T01:43:05.207Z,16.43
2018-01-01T01:45:33.756Z,16.00
2018-01-01T01:48:02.013Z,15.50
2018-01-01T01:50:30.255Z,14.63
2018-01-01T01:52:58.537Z,15.23
2018-01-01T01:55:27.083Z,13.57
2018-01-01T01:57:56.060Z,13.30
2018-01-01T02:00:24.751Z,12.63
2018-01-01T02:02:52.983Z,12.90
2018-01-01T02:05:21.229Z,12.60
2018-01-01T02:07:49.495Z,11.30
2018-01-01T02:10:18.132Z,11.77
2018-01-01T02:12:46.378Z,11.30
2018-01-01T02:15:14.628Z,10.43
2018-01-01T02:17:43.254Z,10.83
2018-01-01T02:20:11.497Z,10.00
2018-01-01T02:22:40.173Z,10.20
2018-01-01T02:25:08.854Z,9.87
2018-01-01T02:27:37.123Z,9.50
2018-01-01T02:30:05.464Z,9.10
2018-01-01T02:32:33.723Z,9.20
2018-01-01T02:35:02.015Z,9.50
2018-01-01T02:37:30.304Z,9.17
2018-01-01T02:39:58.803Z,8.53
2018-01-01T02:42:27.043Z,8.30
2018-01-01T02:44:55.307Z,8.10
2018-01-01T02:47:23.555Z,8.17
2018-01-01T02:49:52.182Z,8.07
2018-01-01T02:52:20.468Z,8.03
2018-01-01T02:54:48.699Z,8.40
2018-01-01T02:57:16.942Z,7.90
2018-01-01T02:59:45.316Z,8.33
2018-01-01T03:02:13.551Z,7.30
2018-01-01T03:04:41.903Z,7.47
2018-01-01T03:07:10.175Z,7.53
2018-01-01T03:09:38.808Z,7.57
2018-01-01T03:12:07.303Z,7.03
2018-01-01T03:14:35.675Z,6.47
2018-01-01T03:17:04.472Z,6.70
2018-01-01T03:19:32.720Z,6.50
2018-01-01T03:22:00.963Z,6.60
2018-01-01T03:24:29.191Z,6.50
2018-01-01T03:26:57.427Z,6.30
2018-01-01T03:29:25.703Z,6.10
2018-01-01T03:31:53.949Z,5.90
2018-01-01T03:34:22.587Z,14.03
2018-01-01T03:36:50.850Z,13.47
2018-01-01T03:39:19.099Z,12.90
2018-01-01T03:41:47.374Z,11.07
2018-01-01T03:44:15.613Z,12.00
2018-01-01T03:46:43.862Z,10.70
2018-01-01T03:49:12.148Z,11.20
2018-01-01T03:51:40.390Z,10.20
2018-01-01T03:54:08.644Z,9.50
2018-01-01T03:56:37.307Z,9.20
2018-01-01T03:59:05.553Z,9.43
2018-01-01T04:01:33.843Z,9.20
2018-01-01T04:04:02.104Z,8.83
2018-01-01T04:06:30.338Z,8.47
2018-01-01T04:08:59.010Z,7.80
2018-01-01T04:11:27.240Z,7.33
2018-01-01T04:13:55.472Z,7.33
2018-01-01T04:16:24.098Z,7.80
2018-01-01T04:18:52.311Z,7.20
2018-01-01T04:21:20.543Z,7.00
2018-01-01T04:23:48.806Z,6.10
2018-01-01T04:26:17.038Z,6.43
2018-01-01T04:28:45.286Z,5.73
2018-01-01T04:31:13.566Z,5.50
2018-01-01T04:33:42.319Z,5.63
2018-01-01T04:36:10.556Z,5.50
2018-01-01T04:38:39.188Z,5.00
2018-01-01T04:41:07.423Z,5.10
2018-01-01T04:43:36.060Z,4.83
2018-01-01T04:46:04.298Z,5.43
2018-01-01T04:48:32.624Z,4.73
2018-01-01T04:51:01.048Z,4.37
2018-01-01T04:53:29.255Z,4.60
2018-01-01T04:55:57.487Z,4.37
2018-01-01T04:58:26.239Z,4.23
2018-01-01T05:00:54.493Z,4.40
2018-01-01T05:03:22.719Z,4.13
2018-01-01T05:05:51.355Z,3.93
2018-01-01T05:08:19.595Z,3.70
2018-01-01T05:10:48.217Z,3.87
2018-01-01T05:13:16.471Z,3.67
2018-01-01T05:15:44.715Z,3.40
2018-01-01T05:18:12.949Z,3.40
2018-01-01T05:20:41.210Z,2.90
2018-01-01T05:23:09.449Z,3.13
2018-01-01T05:25:38.079Z,3.23
2018-01-01T05:28:06.344Z,3.13
2018-01-01T05:30:35.278Z,2.70
2018-01-01T05:33:03.496Z,2.80
2018-01-01T05:35:31.744Z,2.73
2018-01-01T05:38:00.407Z,2.70
2018-01-01T05:40:28.647Z,2.67
2018-01-01T05:42:56.910Z,2.73
2018-01-01T05:45:25.143Z,2.40
2018-01-01T05:47:53.404Z,2.33
2018-01-01T05:50:21.631Z,2.70
2018-01-01T05:52:49.871Z,2.37
2018-01-01T05:55:18.114Z,2.30
2018-01-01T05:57:46.347Z,2.37
2018-01-01T06:00:15.399Z,2.23
2018-01-01T06:02:43.623Z,2.30
2018-01-01T06:05:11.871Z,1.93
2018-01-01T06:07:40.148Z,2.10
2018-01-01T06:10:08.375Z,2.17
2018-01-01T06:12:36.649Z,2.00
2018-01-01T06:15:04.876Z,2.10
2018-01-01T06:17:33.143Z,1.93
2018-01-01T06:20:01.395Z,2.00
2018-01-01T06:22:29.611Z,1.70
2018-01-01T06:24:58.246Z,1.70
2018-01-01T06:27:26.484Z,1.67
2018-01-01T06:29:54.739Z,1.73
2018-01-01T06:32:23.367Z,1.50
2018-01-01T06:34:51.599Z,1.73
2018-01-01T06:37:20.234Z,1.80
2018-01-01T06:39:48.467Z,1.50
2018-01-01T06:42:17.103Z,1.57
2018-01-01T06:44:45.344Z,1.50
2018-01-01T06:47:13.570Z,1.30
2018-01-01T06:49:41.827Z,1.30
2018-01-01T06:52:10.063Z,1.40
2018-01-01T06:54:38.300Z,1.40
2018-01-01T06:57:06.576Z,1.40
2018-01-01T06:59:34.803Z,1.27
2018-01-01T07:02:03.039Z,1.23
2018-01-01T07:04:31.288Z,1.00
2018-01-01T07:06:59.508Z,1.53
2018-01-01T07:09:28.170Z,1.43
2018-01-01T07:11:56.390Z,1.30
2018-01-01T07:14:24.621Z,1.20
2018-01-01T07:16:52.868Z,1.40
2018-01-01T07:19:21.110Z,1.47
2018-01-01T07:21:49.635Z,1.40
2018-01-01T07:24:17.875Z,1.60
2018-01-01T07:26:46.111Z,1.20
2018-01-01T07:29:14.852Z,1.47
2018-01-01T07:31:43.867Z,1.10
2018-01-01T07:34:12.106Z,1.40
2018-01-01T07:36:40.347Z,1.07
2018-01-01T07:39:08.898Z,1.10
2018-01-01T07:41:37.138Z,1.20
2018-01-01T07:44:05.394Z,1.30
2018-01-01T07:46:33.632Z,1.40
2018-01-01T07:49:01.869Z,1.20
2018-01-01T07:51:30.204Z,1.20
2018-01-01T07:53:58.822Z,1.57
2018-01-01T07:56:27.055Z,1.37
2018-01-01T07:58:55.304Z,1.30
2018-01-01T08:01:23.539Z,1.40
2018-01-01T08:03:51.786Z,1.10
2018-01-01T08:06:20.413Z,1.00
2018-01-01T08:08:48.654Z,1.10
2018-01-01T08:11:17.287Z,1.00
2018-01-01T08:13:45.522Z,1.00
2018-01-01T08:16:14.171Z,2.20
2018-01-01T08:18:42.413Z,1.87
2018-01-01T08:21:10.792Z,1.70
2018-01-01T08:23:39.067Z,1.60
2018-01-01T08:26:08.918Z,1.80
2018-01-01T08:28:37.346Z,1.47
2018-01-01T08:31:05.596Z,1.50
2018-01-01T08:33:34.335Z,1.60
2018-01-01T08:36:02.555Z,1.53
2018-01-01T08:38:31.192Z,1.30
2018-01-01T08:40:59.465Z,1.33
2018-01-01T08:43:27.691Z,1.17
2018-01-01T08:45:56.330Z,1.40
2018-01-01T08:48:24.604Z,1.37
2018-01-01T08:50:52.884Z,1.47
2018-01-01T08:53:21.107Z,1.37
2018-01-01T08:55:49.740Z,1.37
2018-01-01T08:58:18.061Z,1.40
2018-01-01T09:00:46.695Z,1.40
2018-01-01T09:03:14.931Z,1.10
2018-01-01T09:05:43.563Z,1.50
2018-01-01T09:08:11.812Z,1.03
2018-01-01T09:10:40.342Z,0.97
2018-01-01T09:13:08.591Z,1.47
2018-01-01T09:15:36.837Z,1.00
2018-01-01T09:18:05.070Z,1.10
2018-01-01T09:20:33.316Z,0.90
2018-01-01T09:23:01.556Z,1.37
2018-01-01T09:25:29.802Z,0.97
2018-01-01T09:27:58.059Z,0.90
2018-01-01T09:30:26.304Z,1.13
2018-01-01T09:32:54.539Z,0.90
2018-01-01T09:35:23.200Z,1.00
2018-01-01T09:37:51.427Z,0.83
2018-01-01T09:40:19.714Z,1.00
2018-01-01T09:42:47.940Z,0.90
2018-01-01T09:45:16.171Z,1.00
2018-01-01T09:47:44.443Z,0.90
2018-01-01T09:50:12.677Z,0.93
2018-01-01T09:52:40.907Z,0.90
2018-01-01T09:55:09.171Z,1.00
2018-01-01T09:57:37.401Z,0.90
2018-01-01T10:00:05.675Z,0.90
2018-01-01T10:02:33.927Z,0.90
2018-01-01T10:05:02.143Z,1.03
2018-01-01T10:07:30.391Z,0.90
2018-01-01T10:09:58.666Z,0.93
2018-01-01T10:12:26.902Z,0.90
2018-01-01T10:14:55.139Z,1.00
2018-01-01T10:17:23.781Z,0.90
2018-01-01T10:19:52.002Z,0.90
2018-01-01T10:22:20.291Z,1.00
2018-01-01T10:24:48.528Z,1.03
2018-01-01T10:27:16.884Z,0.80
2018-01-01T10:29:45.163Z,0.80
2018-01-01T10:32:13.396Z,0.80
2018-01-01T10:34:41.635Z,0.97
2018-01-01T10:37:09.878Z,0.90
2018-01-01T10:39:38.116Z,0.80
2018-01-01T10:42:06.367Z,1.00
2018-01-01T10:44:34.998Z,0.80
2018-01-01T10:47:03.260Z,1.17
2018-01-01T10:49:31.503Z,1.03
2018-01-01T10:52:00.723Z,0.80
2018-01-01T10:54:29.127Z,0.80
2018-01-01T10:56:57.384Z,1.17
2018-01-01T10:59:25.650Z,0.87
2018-01-01T11:01:54.271Z,0.90
2018-01-01T11:04:22.549Z,1.30
2018-01-01T11:06:50.787Z,0.90
2018-01-01T11:09:19.031Z,0.80
2018-01-01T11:11:47.431Z,0.80
2018-01-01T11:14:16.078Z,0.77
2018-01-01T11:16:44.350Z,1.00
2018-01-01T11:19:12.695Z,1.10
2018-01-01T11:21:40.972Z,0.80
2018-01-01T11:24:09.203Z,1.17
2018-01-01T11:26:37.445Z,1.07
2018-01-01T11:29:05.688Z,0.70
2018-01-01T11:31:33.991Z,0.90
2018-01-01T11:34:02.230Z,0.80
2018-01-01T11:36:30.477Z,1.00
2018-01-01T11:38:58.741Z,0.97
2018-01-01T11:41:27.058Z,0.90
2018-01-01T11:43:55.316Z,1.13
2018-01-01T11:46:23.574Z,0.80
2018-01-01T11:48:52.825Z,0.97
2018-01-01T11:51:21.059Z,0.90
2018-01-01T11:53:50.038Z,1.10
2018-01-01T11:56:18.268Z,1.00
2018-01-01T11:58:46.507Z,1.10
2018-01-01T12:01:15.146Z,1.13
2018-01-01T12:03:43.436Z,0.87
2018-01-01T12:06:11.713Z,1.00
2018-01-01T12:08:39.990Z,0.93
2018-01-01T12:11:08.267Z,1.13
2018-01-01T12:13:36.761Z,1.03
2018-01-01T12:16:05.011Z,0.97
2018-01-01T12:18:33.253Z,1.10
2018-01-01T12:21:01.496Z,1.00
2018-01-01T12:23:29.739Z,1.23
2018-01-01T12:25:58.896Z,0.90
2018-01-01T12:28:27.167Z,1.13
2018-01-01T12:30:55.795Z,1.00
2018-01-01T12:33:24.038Z,1.10
2018-01-01T12:35:52.279Z,1.17
2018-01-01T12:38:20.517Z,1.10
2018-01-01T12:40:48.786Z,1.10
2018-01-01T12:43:17.015Z,0.97
2018-01-01T12:45:45.769Z,1.00
2018-01-01T12:48:14.259Z,0.70
2018-01-01T12:50:42.490Z,1.00
2018-01-01T12:53:10.732Z,0.90
2018-01-01T12:55:39.386Z,1.17
2018-01-01T12:58:07.875Z,1.03
2018-01-01T13:00:36.364Z,1.30
2018-01-01T13:03:04.625Z,1.10
2018-01-01T13:05:32.857Z,1.20
2018-01-01T13:08:01.107Z,1.20
2018-01-01T13:10:29.766Z,1.30
2018-01-01T13:12:58.034Z,1.20
2018-01-01T13:15:26.258Z,0.80
2018-01-01T13:17:54.960Z,1.30
2018-01-01T13:20:23.208Z,1.10
2018-01-01T13:22:52.171Z,1.00
2018-01-01T13:25:20.415Z,1.27
2018-01-01T13:27:48.651Z,1.20
2018-01-01T13:30:17.288Z,1.40
2018-01-01T13:32:45.575Z,1.00
2018-01-01T13:35:13.793Z,1.10
2018-01-01T13:37:42.428Z,1.27
2018-01-01T13:40:10.710Z,1.27
2018-01-01T13:42:38.923Z,1.20
2018-01-01T13:45:07.171Z,0.93
2018-01-01T13:47:35.410Z,1.10
2018-01-01T13:50:03.712Z,1.10
2018-01-01T13:52:31.935Z,1.20
2018-01-01T13:55:00.183Z,1.23
2018-01-01T13:57:28.462Z,1.17
2018-01-01T13:59:56.717Z,1.10
2018-01-01T14:02:24.938Z,1.30
2018-01-01T14:04:53.615Z,1.27
2018-01-01T14:07:21.894Z,1.07
2018-01-01T14:09:50.131Z,1.23
2018-01-01T14:12:18.424Z,1.10
2018-01-01T14:14:46.668Z,1.13
2018-01-01T14:17:14.920Z,0.90
2018-01-01T14:19:43.169Z,1.10
2018-01-01T14:22:11.791Z,1.03
2018-01-01T14:24:40.064Z,0.93
2018-01-01T14:27:08.308Z,1.10
2018-01-01T14:29:36.931Z,1.00
2018-01-01T14:32:05.216Z,0.90
2018-01-01T14:34:33.454Z,1.00
2018-01-01T14:37:01.715Z,0.90
2018-01-01T14:39:30.347Z,0.90
2018-01-01T14:41:58.592Z,1.17
2018-01-01T14:44:26.851Z,0.90
2018-01-01T14:46:55.470Z,1.00
2018-01-01T14:49:23.708Z,0.90
2018-01-01T14:51:52.354Z,0.90
2018-01-01T14:54:20.576Z,1.00
2018-01-01T14:56:49.234Z,0.90
2018-01-01T14:59:17.505Z,1.03
2018-01-01T15:01:45.764Z,1.13
2018-01-01T15:04:14.003Z,1.13
2018-01-01T15:06:42.724Z,1.20
2018-01-01T15:09:11.158Z,1.30
2018-01-01T15:11:40.309Z,1.20
2018-01-01T15:14:09.332Z,1.13
2018-01-01T15:16:37.555Z,1.10
2018-01-01T15:19:05.899Z,1.17
2018-01-01T15:21:34.227Z,1.00
2018-01-01T15:24:02.489Z,1.10
2018-01-01T15:26:30.780Z,1.20
2018-01-01T15:28:59.004Z,1.10
2018-01-01T15:31:27.249Z,1.33
2018-01-01T15:33:55.565Z,1.00
2018-01-01T15:36:23.797Z,1.00
2018-01-01T15:38:52.035Z,1.20
2018-01-01T15:41:20.299Z,1.17
2018-01-01T15:43:48.587Z,1.20
2018-01-01T15:46:16.831Z,0.90
2018-01-01T15:48:45.124Z,1.10
2018-01-01T15:51:13.412Z,1.10
2018-01-01T15:53:41.648Z,1.17
2018-01-01T15:56:10.207Z,1.00
2018-01-01T15:58:38.478Z,1.20
2018-01-01T16:01:06.963Z,1.20
2018-01-01T16:03:35.248Z,1.40
2018-01-01T16:06:03.492Z,0.97
2018-01-01T16:08:31.768Z,1.00
2018-01-01T16:11:00.091Z,1.30
2018-01-01T16:13:28.330Z,1.20
2018-01-01T16:15:56.579Z,1.30
2018-01-01T16:18:25.199Z,1.10
2018-01-01T16:20:53.475Z,1.20
2018-01-01T16:23:21.727Z,1.20
2018-01-01T16:25:50.956Z,1.30
2018-01-01T16:28:19.203Z,1.10
2018-01-01T16:30:47.447Z,1.10
2018-01-01T16:33:15.717Z,1.00
2018-01-01T16:35:44.381Z,1.10
2018-01-01T16:38:13.028Z,1.10
2018-01-01T16:40:41.253Z,1.20
2018-01-01T16:43:10.019Z,1.23
2018-01-01T16:45:39.500Z,1.30
2018-01-01T16:48:08.104Z,1.20
2018-01-01T16:50:36.408Z,1.10
2018-01-01T16:53:05.087Z,1.33
2018-01-01T16:55:33.433Z,1.10
2018-01-01T16:58:01.872Z,1.10
2018-01-01T17:00:30.209Z,1.10
2018-01-01T17:02:58.779Z,1.13
2018-01-01T17:05:27.493Z,1.07
2018-01-01T17:07:56.170Z,1.40
2018-01-01T17:10:24.591Z,1.10
2018-01-01T17:12:53.943Z,1.30
2018-01-01T17:15:23.659Z,1.20
2018-01-01T17:17:53.347Z,1.20
2018-01-01T17:20:22.686Z,1.03
2018-01-01T17:22:51.628Z,1.20
2018-01-01T17:25:19.989Z,1.20
2018-01-01T17:27:48.267Z,1.00
2018-01-01T17:30:16.606Z,1.07
2018-01-01T17:32:45.329Z,1.33
2018-01-01T17:35:13.633Z,1.30
2018-01-01T17:37:42.568Z,1.30
2018-01-01T17:40:11.215Z,1.23
2018-01-01T17:42:39.716Z,1.20
2018-01-01T17:45:08.325Z,1.40
2018-01-01T17:47:37.122Z,1.20
2018-01-01T17:50:08.326Z,1.40
2018-01-01T17:52:36.751Z,1.47
2018-01-01T17:55:06.805Z,1.10
2018-01-01T17:57:35.828Z,1.23
2018-01-01T18:00:04.513Z,1.20
2018-01-01T18:02:34.232Z,1.10
2018-01-01T18:05:02.589Z,1.17
2018-01-01T18:07:30.971Z,1.47
2018-01-01T18:09:59.209Z,1.53
2018-01-01T18:12:27.451Z,1.50
2018-01-01T18:14:55.714Z,1.40
2018-01-01T18:17:24.346Z,1.60
2018-01-01T18:19:52.610Z,1.90
2018-01-01T18:22:20.865Z,1.40
2018-01-01T18:24:49.592Z,1.57
2018-01-01T18:27:17.854Z,1.70
2018-01-01T18:29:46.547Z,1.80
2018-01-01T18:32:14.879Z,1.83
2018-01-01T18:34:43.263Z,1.63
2018-01-01T18:37:11.878Z,1.90
2018-01-01T18:39:40.153Z,1.80
2018-01-01T18:42:08.442Z,1.90
2018-01-01T18:44:36.671Z,1.60
2018-01-01T18:47:04.923Z,1.93
2018-01-01T18:49:33.686Z,1.90
2018-01-01T18:52:01.935Z,1.70
2018-01-01T18:54:30.228Z,1.60
2018-01-01T18:56:58.501Z,1.90
2018-01-01T18:59:26.756Z,2.00
2018-01-01T19:01:55.264Z,2.00
2018-01-01T19:04:24.236Z,1.90
2018-01-01T19:06:52.813Z,2.10
2018-01-01T19:09:21.519Z,1.87
2018-01-01T19:11:49.760Z,1.70
2018-01-01T19:14:18.003Z,1.70
2018-01-01T19:16:47.084Z,2.03
2018-01-01T19:19:15.319Z,2.40
2018-01-01T19:21:43.569Z,1.83
2018-01-01T19:24:11.848Z,1.50
2018-01-01T19:26:40.588Z,2.20
2018-01-01T19:29:09.031Z,1.77
2018-01-01T19:31:37.347Z,2.17
2018-01-01T19:34:05.760Z,2.70
2018-01-01T19:36:34.033Z,3.00
2018-01-01T19:39:02.600Z,4.40
2018-01-01T19:41:30.830Z,3.40
2018-01-01T19:43:59.105Z,3.60
2018-01-01T19:46:27.343Z,2.90
2018-01-01T19:48:56.009Z,3.10
2018-01-01T19:51:24.275Z,3.80
2018-01-01T19:53:52.498Z,3.60
2018-01-01T19:56:21.050Z,3.60
2018-01-01T19:58:49.408Z,3.93
2018-01-01T20:01:17.661Z,354.53
2018-01-01T20:03:45.928Z,228.40
2018-01-01T20:06:14.211Z,145.57
2018-01-01T20:08:42.489Z,142.50
2018-01-01T20:11:10.755Z,123.13
2018-01-01T20:13:39.008Z,82.77
2018-01-01T20:16:07.340Z,84.37
2018-01-01T20:18:35.848Z,81.72
2018-01-01T20:21:04.206Z,87.53
2018-01-01T20:23:32.692Z,66.97
2018-01-01T20:26:02.129Z,54.23
2018-01-01T20:28:30.640Z,50.50
2018-01-01T20:30:59.185Z,45.80
2018-01-01T20:33:27.784Z,43.00
2018-01-01T20:35:56.484Z,35.03
2018-01-01T20:38:25.235Z,31.60
2018-01-01T20:40:53.913Z,28.70
2018-01-01T20:43:22.314Z,27.23
2018-01-01T20:45:51.224Z,25.13
2018-01-01T20:48:20.387Z,20.90
2018-01-01T20:50:48.959Z,18.63
2018-01-01T20:53:17.382Z,18.90
2018-01-01T20:55:45.770Z,16.40
2018-01-01T20:58:14.485Z,14.30
2018-01-01T21:00:42.735Z,13.40
2018-01-01T21:03:11.010Z,11.40
2018-01-01T21:05:39.287Z,11.27
2018-01-01T21:08:07.527Z,10.07
2018-01-01T21:10:36.169Z,8.70
2018-01-01T21:13:04.443Z,8.87
2018-01-01T21:15:32.738Z,8.30
2018-01-01T21:18:00.998Z,297.60
2018-01-01T21:20:29.396Z,290.43
2018-01-01T21:22:57.976Z,267.40
2018-01-01T21:25:26.250Z,251.20
2018-01-01T21:27:54.508Z,211.03
2018-01-01T21:30:22.835Z,178.90
2018-01-01T21:32:51.183Z,158.73
2018-01-01T21:35:19.455Z,130.57
2018-01-01T21:37:47.718Z,121.90
2018-01-01T21:40:15.993Z,97.00
2018-01-01T21:42:44.235Z,75.33
2018-01-01T21:45:12.484Z,65.77
2018-01-01T21:47:41.128Z,59.57
2018-01-01T21:50:09.375Z,54.33
2018-01-01T21:52:37.711Z,46.10
2018-01-01T21:55:05.959Z,39.30
2018-01-01T21:57:34.195Z,37.63
2018-01-01T22:00:02.517Z,32.43
2018-01-01T22:02:30.725Z,28.00
2018-01-01T22:04:59.403Z,30.03
2018-01-01T22:07:28.039Z,32.40
2018-01-01T22:09:56.288Z,32.33
2018-01-01T22:12:24.552Z,31.53
2018-01-01T22:14:53.210Z,30.07
2018-01-01T22:17:21.513Z,29.40
2018-01-01T22:19:49.774Z,28.23
2018-01-01T22:22:18.336Z,29.03
2018-01-01T22:24:46.620Z,30.17
2018-01-01T22:27:14.905Z,28.17
2018-01-01T22:29:43.137Z,29.90
2018-01-01T22:32:11.431Z,28.40
2018-01-01T22:34:39.735Z,28.13
2018-01-01T22:37:08.403Z,27.20
2018-01-01T22:39:36.651Z,27.37
2018-01-01T22:42:04.942Z,24.80
2018-01-01T22:44:33.191Z,25.23
2018-01-01T22:47:01.445Z,23.97
2018-01-01T22:49:29.709Z,24.00
2018-01-01T22:51:58.707Z,22.33
2018-01-01T22:54:26.956Z,63.13
2018-01-01T22:56:55.231Z,64.27
2018-01-01T22:59:23.486Z,57.33
2018-01-01T23:01:53.087Z,54.53
2018-01-01T23:04:21.455Z,51.00
2018-01-01T23:06:49.698Z,51.93
2018-01-01T23:09:17.959Z,47.50
2018-01-01T23:11:46.603Z,47.00
2018-01-01T23:14:14.852Z,45.20
2018-01-01T23:16:43.128Z,42.23
2018-01-01T23:19:11.387Z,41.17
2018-01-01T23:21:39.643Z,39.00
2018-01-01T23:24:07.916Z,38.53
2018-01-01T23:26:36.155Z,36.57
2018-01-01T23:29:04.428Z,35.17
2018-01-01T23:31:32.690Z,34.00
2018-01-01T23:34:01.826Z,31.70
2018-01-01T23:36:30.103Z,28.73
2018-01-01T23:38:58.355Z,28.07
2018-01-01T23:41:26.621Z,27.93
2018-01-01T23:43:54.880Z,27.40
2018-01-01T23:46:23.127Z,26.20
2018-01-01T23:48:51.804Z,23.60
2018-01-01T23:51:20.068Z,24.03
2018-01-01T23:53:48.314Z,21.73
2018-01-01T23:56:16.784Z,21.90
2018-01-01T23:58:45.403Z,20.50
